Latest Coastal Weather Observations for Hamilton Island

IDQ60701

Issued at 11:12 am EST Monday 30 May 2016 (issued every 10 minutes, with the page automatically refreshed every 10 minutes)

About coastal observations | Map of coastal stations | Coastal observations for QLD | Marine services | Other Formats
Station Details ID: 033106 Name: HAMILTON ISLAND AIRPORT Lat: -20.37 Lon: 148.95 Height: 58.66 m
Data from the previous 72 hours. | See also: Recent months at Hamilton Island
Date/Time
EST
Temp

°C
Wind Pressure Rain
since 9am
mm
Weather Cloud Vis
km
Sea
Height
m
Swell
Dir
 
Speed
knots
Gust
knots
hPa Trend Height
m
Period
s
Dir
30/11:00am 25.3 ESE 13 15 1020.6 - 0.0 - Partly cloudy 10 - - - -
30/10:30am 25.6 ESE 13 15 1020.7 - 0.0 - Partly cloudy 10 - - - -
30/10:00am 25.6 ESE 15 18 1020.6 - 0.0 - - 10 - - - -
30/09:30am 25.2 ESE 15 17 1020.7 - 0.0 - Partly cloudy 10 - - - -
30/09:00am 25.3 ESE 15 17 1020.3 - 0.0 - Mostly clear 10 - - - -
30/08:30am 25.2 ESE 14 16 1020.5 - 0.0 - Partly cloudy 10 - - - -
30/08:00am 24.7 ESE 13 15 1020.2 - 0.0 - Partly cloudy 10 - - - -
30/07:30am 24.4 ESE 13 15 1019.7 - 0.0 - Partly cloudy 10 - - - -
30/07:00am 24.2 ESE 13 15 1019.1 - 0.0 - Partly cloudy 10 - - - -
30/06:30am 23.9 ESE 10 11 1019.0 - 0.0 - Partly cloudy 10 - - - -
30/06:00am 23.7 SE 10 11 1018.5 - 0.0 - Mostly clear 10 - - - -
30/05:30am 23.9 ESE 11 14 1018.5 - 0.0 - Partly cloudy 10 - - - -
30/05:00am 24.1 ESE 11 13 1018.3 - 0.0 - Partly cloudy 10 - - - -
30/04:30am 24.1 ESE 10 12 1018.3 - 0.0 - Partly cloudy 10 - - - -
30/04:00am 24.1 E 12 14 1018.0 - 0.0 - Partly cloudy 10 - - - -
30/03:30am 24.0 E 10 12 1018.1 - 0.0 - - 10 - - - -
30/03:00am 24.0 E 12 16 1017.9 - 0.0 - Mostly clear 10 - - - -
30/02:30am 24.1 ESE 12 14 1018.3 - 0.0 - Partly cloudy 10 - - - -
30/02:00am 24.0 E 12 14 1018.2 - 0.0 - Partly cloudy 10 - - - -
30/01:30am 24.3 E 13 15 1018.4 - 0.0 - Partly cloudy 10 - - - -
30/01:00am 24.3 E 13 15 1018.6 - 0.0 - Partly cloudy 10 - - - -
30/12:30am 24.2 ESE 12 15 1018.4 - 0.0 - Partly cloudy 10 - - - -
30/12:00am 24.1 ESE 13 14 1018.3 - 0.0 - Partly cloudy 10 - - - -
 
Date/Time
EST
Temp

°C
Wind Pressure Rain
since 9am
mm
Weather Cloud Vis
km
Sea
Height
m
Swell
Dir
 
Speed
knots
Gust
knots
hPa Trend Height
m
Period
s
Dir
29/11:30pm 24.3 E 13 14 1018.7 - 0.0 - Partly cloudy 10 - - - -
29/11:00pm 24.3 ESE 11 13 1019.0 - 0.0 - Partly cloudy 10 - - - -
29/10:30pm 24.2 ESE 12 14 1019.0 - 0.0 - Partly cloudy 10 - - - -
29/10:00pm 24.1 ESE 11 13 1019.2 - 0.0 - Partly cloudy 10 - - - -
29/09:30pm 24.1 ESE 14 16 1019.0 - 0.0 - Cloudy 10 - - - -
29/09:00pm 24.1 ESE 12 14 1018.6 - 0.0 - Mostly cloudy 10 - - - -
29/08:30pm 23.8 ESE 12 14 1018.8 - 0.0 - Cloudy 10 - - - -
29/08:00pm 23.5 ESE 10 13 1018.9 - 0.0 - Cloudy 10 - - - -
29/07:37pm 23.2 SE 12 14 1018.7 - 0.0 - Partly cloudy 10 - - - -
29/07:30pm 23.2 SE 12 14 1018.6 - 0.0 - Partly cloudy 10 - - - -
29/07:20pm 23.2 SE 12 14 1018.6 - 0.0 - Partly cloudy 10 - - - -
29/07:00pm 23.1 SE 12 14 1018.5 - 0.0 - Cloudy 10 - - - -
29/06:30pm 23.0 SE 13 15 1018.0 - 0.0 - Partly cloudy 10 - - - -
29/06:00pm 23.3 SE 12 14 1017.4 - 0.0 - Mostly clear 10 - - - -
29/05:30pm 23.4 SE 12 14 1017.4 - 0.0 - - 10 - - - -
29/05:00pm 23.5 ESE 11 14 1017.2 - 0.0 - - 10 - - - -
29/04:30pm 23.6 ESE 11 12 1017.0 - 0.0 - - 10 - - - -
29/04:00pm 24.0 ESE 10 13 1016.9 - 0.0 - - 10 - - - -
29/03:30pm 24.0 SE 11 13 1016.7 - 0.0 - - 10 - - - -
29/03:00pm 24.3 SE 12 15 1016.3 - 0.0 - - 10 - - - -
29/02:30pm 24.3 SSE 12 14 1016.4 - 0.0 - - 10 - - - -
29/02:00pm 24.1 SSE 14 16 1016.3 - 0.0 - - 10 - - - -
29/01:30pm 23.9 SSE 15 17 1016.4 - 0.0 - - 10 - - - -
29/01:00pm 23.8 SSE 15 18 1016.8 - 0.0 - - 10 - - - -
29/12:30pm 23.7 SSE 17 19 1017.1 - 0.0 - - 10 - - - -
29/12:00pm 23.7 SSE 17 20 1017.4 - 0.0 - - 10 - - - -
29/11:30am 23.7 SSE 18 21 1018.0 - 0.0 - - 10 - - - -
29/11:00am 23.7 SSE 18 21 1018.1 - 0.0 - - 10 - - - -
29/10:30am 23.9 SSE 20 23 1018.4 - 0.0 - - 10 - - - -
29/10:00am 24.1 SSE 19 22 1018.6 - 0.0 - - 10 - - - -
29/09:30am 23.7 SSE 18 21 1018.8 - 0.0 - Cloudy 10 - - - -
29/09:00am 23.5 SSE 18 21 1018.4 - 0.0 - Cloudy - - - - -
29/08:30am 23.4 SSE 16 19 1018.2 - 0.0 - Partly cloudy 10 - - - -
29/08:00am 23.4 SSE 15 18 1017.9 - 0.0 - Partly cloudy 10 - - - -
29/07:30am 23.1 SSE 14 17 1017.6 - 0.0 - Partly cloudy 10 - - - -
29/07:00am 23.1 SSE 13 16 1017.2 - 0.0 - Partly cloudy 10 - - - -
29/06:36am 23.1 SSE 14 18 1017.1 - 0.0 - Partly cloudy 10 - - - -
29/06:30am 23.1 SSE 16 18 1017.0 - 0.0 - Partly cloudy 10 - - - -
29/06:00am 22.9 SSE 15 19 1016.3 - 0.0 - Cloudy 10 - - - -
29/05:30am 22.6 S 15 17 1016.2 - 0.0 - Partly cloudy 10 - - - -
29/05:22am 22.2 SSE 12 15 1016.1 - 0.0 - Partly cloudy 10 - - - -
29/05:03am 23.2 S 11 13 1015.9 - 0.0 - Partly cloudy 10 - - - -
29/05:00am 23.2 S 10 13 1015.9 - 0.0 - Partly cloudy 10 - - - -
29/04:49am 23.2 S 10 11 1015.7 - 0.0 - Partly cloudy 10 - - - -
29/04:30am 23.3 S 7 9 1015.5 - 0.0 - - 10 - - - -
29/04:00am 23.2 SSE 7 8 1015.2 - 0.0 - - 10 - - - -
29/03:30am 23.0 SSE 6 7 1015.2 - 0.0 - - 10 - - - -
29/03:00am 23.3 SSE 7 9 1015.0 - 0.0 - - 10 - - - -
29/02:30am 23.3 ESE 4 5 1015.3 - 0.0 - - 10 - - - -
29/02:00am 23.4 SSE 4 4 1015.4 - 0.0 - - 10 - - - -
29/01:30am 23.4 CALM 0 0 1015.5 - 0.0 - - 10 - - - -
29/01:00am 23.6 SE 3 4 1015.6 - 0.0 - - 10 - - - -
29/12:30am 23.7 S 4 5 1015.7 - 0.0 - Partly cloudy 10 - - - -
29/12:00am 23.7 CALM 0 0 1015.7 - 0.0 - Mostly clear 10 - - - -
 
Date/Time
EST
Temp

°C
Wind Pressure Rain
since 9am
mm
Weather Cloud Vis
km
Sea
Height
m
Swell
Dir
 
Speed
knots
Gust
knots
hPa Trend Height
m
Period
s
Dir
28/11:30pm 23.6 CALM 0 0 1016.0 - 0.0 - Partly cloudy 10 - - - -
28/11:00pm 23.6 CALM 0 0 1016.2 - 0.0 - Partly cloudy 10 - - - -
28/10:30pm 23.8 CALM 0 0 1016.2 - 0.0 - - 10 - - - -
28/10:00pm 23.7 CALM 0 0 1016.2 - 0.0 - - 10 - - - -
28/09:30pm 23.7 CALM 0 0 1016.2 - 0.0 - - 10 - - - -
28/09:00pm 23.7 CALM 0 0 1015.9 - 0.0 - - 10 - - - -
28/08:30pm 23.7 N 3 4 1015.9 - 0.0 - - 10 - - - -
28/08:00pm 23.8 N 3 5 1015.8 - 0.0 - - 10 - - - -
28/07:30pm 24.1 NE 6 8 1015.6 - 0.0 - - 10 - - - -
28/07:00pm 24.0 ENE 6 7 1015.3 - 0.0 - - 10 - - - -
28/06:30pm 24.1 ENE 5 6 1014.8 - 0.0 - - 10 - - - -
28/06:00pm 24.3 NE 6 8 1014.1 - 0.0 - - 10 - - - -
28/05:30pm 24.6 E 7 9 1014.2 - 0.0 - - 10 - - - -
28/05:00pm 25.1 ENE 9 11 1013.9 - 0.0 - - 10 - - - -
28/04:30pm 25.2 E 8 9 1013.7 - 0.0 - - 10 - - - -
28/04:00pm 25.8 E 9 11 1013.6 - 0.0 - - 10 - - - -
28/03:30pm 25.8 E 9 12 1013.5 - 0.0 - - 10 - - - -
28/03:00pm 25.8 E 9 11 1013.3 - 0.0 - - 10 - - - -
28/02:30pm 25.5 ESE 9 11 1013.7 - 0.0 - - 10 - - - -
28/02:00pm 25.7 ESE 9 11 1013.9 - 0.0 - - 10 - - - -
28/01:30pm 25.9 ESE 7 8 1014.2 - 0.0 - - 10 - - - -
28/01:00pm 26.1 ESE 6 7 1014.4 - 0.0 - - 10 - - - -
28/12:30pm 26.2 E 5 7 1014.8 - 0.0 - Partly cloudy 10 - - - -
28/12:00pm 25.8 SE 7 9 1014.9 - 0.0 - Partly cloudy 10 - - - -
28/11:30am 26.2 SE 7 8 1015.4 - 0.0 - Partly cloudy 10 - - - -
28/11:00am 25.3 ESE 5 6 1015.5 - 0.0 - Partly cloudy 10 - - - -
28/10:30am 25.5 ESE 5 7 1016.0 - 0.0 - Partly cloudy 10 - - - -
28/10:00am 25.3 ESE 5 6 1016.3 - 0.0 - Partly cloudy 10 - - - -
28/09:30am 24.8 ESE 7 8 1016.5 - 0.0 - Partly cloudy 10 - - - -
28/09:00am 24.6 ESE 6 8 1016.2 - 0.0 - Mostly cloudy 10 - - - -
28/08:30am 24.5 SE 7 9 1016.3 - 0.0 - Partly cloudy 10 - - - -
28/08:00am 23.8 ESE 9 10 1016.0 - 0.0 - Partly cloudy 10 - - - -
28/07:30am 24.1 SE 9 11 1015.8 - 0.0 - - 10 - - - -
28/07:00am 23.5 SE 11 14 1015.4 - 0.0 - - 10 - - - -
28/06:30am 23.5 SSE 13 15 1015.2 - 0.0 - - 10 - - - -
28/06:00am 23.5 SSE 15 17 1014.7 - 0.0 - Mostly clear 10 - - - -
28/05:30am 23.8 SSE 14 16 1014.4 - 0.0 - - 10 - - - -
28/05:00am 23.8 SSE 12 15 1014.2 - 0.0 - - 10 - - - -
28/04:30am 24.1 SSE 11 13 1014.0 - 0.0 - - 10 - - - -
28/04:00am 24.3 S 9 11 1013.7 - 0.0 - Partly cloudy 10 - - - -
28/03:30am 24.6 SSW 8 11 1013.3 - 0.0 - Partly cloudy - - - - -
28/03:00am 24.5 SW 1 6 1012.8 - 0.0 - Partly cloudy 10 - - - -
28/02:30am 24.5 WSW 6 10 1013.0 - 0.0 - Partly cloudy 10 - - - -
28/02:00am 25.0 WNW 13 21 1012.6 - 0.0 - Partly cloudy 10 - - - -
28/01:30am 25.0 NW 17 22 1012.3 - 0.0 - Partly cloudy 10 - - - -
28/01:00am 24.8 NNW 20 23 1012.0 - 0.0 - Partly cloudy 10 - - - -
28/12:30am 25.0 NNW 19 23 1012.1 - 0.0 - Partly cloudy 10 - - - -
28/12:07am 24.9 NNW 19 24 1012.0 - 0.0 - Partly cloudy 10 - - - -
28/12:00am 25.1 NNW 20 24 1011.7 - 0.0 - Partly cloudy 10 - - - -
 
Date/Time
EST
Temp

°C
Wind Pressure Rain
since 9am
mm
Weather Cloud Vis
km
Sea
Height
m
Swell
Dir
 
Speed
knots
Gust
knots
hPa Trend Height
m
Period
s
Dir
27/11:54pm 25.1 NNW 20 23 1012.0 - 0.0 - Partly cloudy 10 - - - -
27/11:46pm 25.1 NNW 20 25 1012.1 - 0.0 - Partly cloudy 10 - - - -
27/11:30pm 25.1 NNW 21 25 1012.1 - 0.0 - Partly cloudy 10 - - - -
27/11:19pm 25.2 NNW 20 25 1012.0 - 0.0 - Partly cloudy 10 - - - -
27/11:00pm 25.1 NNW 19 24 1012.2 - 0.0 - Partly cloudy 10 - - - -
27/10:30pm 25.1 NNW 20 25 1012.2 - 0.0 - Partly cloudy 10 - - - -
27/10:00pm 25.2 NNW 23 27 1012.2 - 0.0 - - 10 - - - -
27/09:30pm 25.3 NNW 22 27 1012.1 - 0.0 - Partly cloudy 10 - - - -
27/09:12pm 25.2 NNW 20 25 1012.3 - 0.0 - Partly cloudy 10 - - - -
27/09:00pm 25.3 NNW 20 25 1012.0 - 0.0 - Partly cloudy 10 - - - -
27/08:58pm 25.3 NNW 19 25 1012.2 - 0.0 - Partly cloudy 10 - - - -
27/08:30pm 25.3 NNW 20 25 1012.3 - 0.0 - Partly cloudy 10 - - - -
27/08:00pm 25.3 NNW 21 28 1012.1 - 0.0 - Partly cloudy 10 - - - -
27/07:30pm 25.3 NNW 24 29 1011.8 - 0.0 - Partly cloudy 10 - - - -
27/07:00pm 25.3 NNW 22 27 1011.5 - 0.0 - Partly cloudy 10 - - - -
27/06:30pm 25.4 NNW 21 25 1011.3 - 0.0 - Partly cloudy 10 - - - -
27/06:00pm 25.3 NNW 24 27 1010.4 - 0.0 - Mostly clear 10 - - - -
27/05:30pm 25.4 NNW 23 28 1010.6 - 0.0 - Partly cloudy 10 - - - -
27/05:00pm 25.7 NNW 23 28 1010.3 - 0.0 - Partly cloudy 10 - - - -
27/04:30pm 26.2 NNW 22 26 1010.2 - 0.0 - - 10 - - - -
27/04:20pm 26.2 NNW 24 31 1010.0 - 0.0 - Partly cloudy 10 - - - -
27/04:00pm 26.6 NNW 22 26 1010.0 - 0.0 - Partly cloudy 10 - - - -
27/03:48pm 26.5 NNW 24 29 1010.2 - 0.0 - Partly cloudy 10 - - - -
27/03:30pm 26.5 NNW 23 28 1010.3 - 0.0 - - 10 - - - -
27/03:00pm 26.5 NNW 22 27 1009.9 - 0.0 - - 10 - - - -
27/02:30pm 26.6 NNW 21 28 1010.5 - 0.0 - - 10 - - - -
27/02:00pm 26.5 NNW 22 28 1010.8 - 0.0 - - 10 - - - -
27/01:30pm 26.8 NNW 20 25 1011.3 - 0.0 - - 10 - - - -
27/01:00pm 26.7 NNW 21 27 1011.5 - 0.0 - - 10 - - - -
27/12:30pm 26.6 NNW 23 29 1012.0 - 0.0 - - 10 - - - -
27/12:00pm 26.6 NW 21 25 1012.2 - 0.0 - - 10 - - - -
27/11:30am 26.3 NNW 22 27 1013.0 - 0.0 - - 10 - - - -

Other Formats:

Comma delimited format used in spreadsheet applications
http://www.bom.gov.au/fwo/IDQ60701/IDQ60701.94368.axf

JavaScript Object Notation format (JSON) in row-major order
http://www.bom.gov.au/fwo/IDQ60701/IDQ60701.94368.json